This demonstration page uses our WeatherBlox Daily Observations layout. Learn more.

Hourly Observations for June 27, 2020

Temp ( °F °C ) Dew Point ( °F °C ) Humidity (%) Winds ( mph kmh ) Pressure ( in mb ) Visibility ( mi km ) Precip ( " mm )
12:54 am 00:54 Mostly Cloudy 77 25 70 21.1 79 79 N 5 7 29.8 1009 10 16.0934 0 0
1:54 am 01:54 Partly Cloudy 77 25 70 21.1 79 79 E 8 13 29.8 1009 10 16.0934 0 0
2:54 am 02:54 Mostly Clear 74 23.3 67 19.4 79 79 S 7 11 29.79 1009 10 16.0934 0 0
3:54 am 03:54 Cloudy 72 22.2 64 17.8 76 76 SSW 16 26 29.84 1010 10 16.0934 0.001 0.001
4:54 am 04:54 Mostly Clear 72 22.2 64 17.8 76 76 WSW 14 22 29.83 1010 10 16.0934 0 0
5:54 am 05:54 Mostly Clear 70 21.1 64 17.8 82 82 S 8 13 29.82 1010 10 16.0934 0 0
6:54 am 06:54 Sunny 70 21.1 64 17.8 82 82 S 5 7 29.8 1009 10 16.0934 0 0
7:54 am 07:54 Mostly Cloudy 73 22.8 64 17.8 74 74 ENE 7 11 29.78 1009 10 16.0934 0 0
8:54 am 08:54 Sunny 73 22.8 64 17.8 74 74 Calm 29.8 1009 10 16.0934 0 0
9:54 am 09:54 Sunny 75 23.9 65 18.3 71 71 SSW 5 7 29.82 1010 10 16.0934 0 0
10:54 am 10:54 Mostly Sunny 77 25 67 19.4 71 71 S 13 20 29.82 1010 10 16.0934 0 0
11:54 am 11:54 Partly Cloudy 79 26.1 66 18.9 65 65 SSW 6 9 29.81 1010 10 16.0934 0 0
12:54 pm 12:54 Partly Cloudy 81 27.2 67 19.4 62 62 SSW 12 19 29.8 1009 10 16.0934 0 0
1:52 pm 13:52 Mostly Cloudy 82 28 66 19 58 58 WSW 9 15 29.75 1008 10 16.0934 0 0
1:54 pm 13:54 Partly Cloudy 82 27.8 66 18.9 58 58 WSW 8 13 29.78 1008 10 16.0934 0 0
2:54 pm 14:54 Partly Cloudy 83 28.3 66 18.9 57 57 SW 12 19 29.77 1008 10 16.0934 0 0
3:54 pm 15:54 Mostly Sunny 82 27.8 64 17.8 55 55 SW 10 17 29.76 1008 10 16.0934 0 0
4:54 pm 16:54 Mostly Sunny 84 28.9 67 19.4 57 57 SSW 8 13 29.74 1007 10 16.0934 0 0
5:54 pm 17:54 Mostly Sunny 84 28.9 68 20 59 59 SW 8 13 29.73 1007 10 16.0934 0 0
6:54 pm 18:54 Sunny 84 28.9 67 19.4 57 57 SSE 10 17 29.71 1006 10 16.0934 0 0
7:54 pm 19:54 Sunny 82 27.8 68 20 63 63 S 12 19 29.7 1006 10 16.0934 0 0
8:54 pm 20:54 Sunny 79 26.1 68 20 69 69 SSE 8 13 29.7 1006 10 16.0934 0 0
9:54 pm 21:54 Clear 78 25.6 68 20 71 71 SSE 7 11 29.72 1006 10 16.0934 0 0
10:54 pm 22:54 Clear 77 25 68 20 74 74 SE 8 13 29.72 1007 10 16.0934 0 0
11:54 pm 23:54 Clear 77 25 68 20 74 74 SE 12 19 29.7 1006 10 16.0934 0 0

Powered by AerisWeather